createdAt,value
2018-09-08T00:01:26.771Z,82.10
2018-09-08T00:03:54.866Z,82.40
2018-09-08T00:06:28.544Z,82.80
2018-09-08T00:08:56.677Z,83.30
2018-09-08T00:11:24.791Z,83.60
2018-09-08T00:13:52.899Z,83.70
2018-09-08T00:16:26.697Z,84.70
2018-09-08T00:19:00.144Z,84.30
2018-09-08T00:21:33.630Z,84.40
2018-09-08T00:24:07.581Z,84.80
2018-09-08T00:26:34.966Z,85.10
2018-09-08T00:29:34.942Z,85.40
2018-09-08T00:32:07.353Z,85.50
2018-09-08T00:34:35.459Z,85.90
2018-09-08T00:37:03.650Z,86.00
2018-09-08T00:39:31.774Z,86.30
2018-09-08T00:41:59.895Z,86.50
2018-09-08T00:44:28.029Z,86.60
2018-09-08T00:46:56.183Z,87.00
2018-09-08T00:49:24.399Z,87.10
2018-09-08T00:51:52.530Z,87.40
2018-09-08T00:54:20.855Z,87.60
2018-09-08T00:56:48.989Z,87.80
2018-09-08T00:59:17.091Z,87.90
2018-09-08T01:01:45.220Z,87.70
2018-09-08T01:04:13.342Z,87.70
2018-09-08T01:06:42.138Z,87.70
2018-09-08T01:09:10.238Z,87.60
2018-09-08T01:11:38.387Z,88.40
2018-09-08T01:14:06.578Z,87.50
2018-09-08T01:16:34.716Z,87.50
2018-09-08T01:19:02.835Z,87.30
2018-09-08T01:21:31.791Z,87.70
2018-09-08T01:24:00.506Z,87.00
2018-09-08T01:26:28.618Z,87.30
2018-09-08T01:28:56.726Z,86.70
2018-09-08T01:31:24.831Z,86.50
2018-09-08T01:33:52.925Z,86.70
2018-09-08T01:36:21.034Z,86.80
2018-09-08T01:38:49.148Z,86.80
2018-09-08T01:41:17.374Z,86.90
2018-09-08T01:43:45.479Z,87.10
2018-09-08T01:46:13.626Z,87.20
2018-09-08T01:48:41.735Z,87.50
2018-09-08T01:51:09.849Z,87.50
2018-09-08T01:53:37.954Z,87.40
2018-09-08T01:56:06.054Z,87.60
2018-09-08T01:58:34.143Z,87.90
2018-09-08T02:01:02.266Z,87.90
2018-09-08T02:03:30.358Z,88.00
2018-09-08T02:05:58.447Z,88.30
2018-09-08T02:08:26.571Z,88.50
2018-09-08T02:10:54.682Z,88.80
2018-09-08T02:13:22.814Z,89.10
2018-09-08T02:15:50.943Z,88.70
2018-09-08T02:18:19.051Z,88.40
2018-09-08T02:20:47.146Z,88.10
2018-09-08T02:23:15.267Z,88.00
2018-09-08T02:25:43.375Z,88.10
2018-09-08T02:28:11.504Z,87.90
2018-09-08T02:30:39.608Z,87.80
2018-09-08T02:33:07.767Z,88.70
2018-09-08T02:35:35.886Z,88.20
2018-09-08T02:38:04.131Z,88.10
2018-09-08T02:40:32.240Z,88.20
2018-09-08T02:43:00.341Z,88.30
2018-09-08T02:45:28.455Z,88.50
2018-09-08T02:47:56.575Z,88.70
2018-09-08T02:50:36.256Z,88.90
2018-09-08T02:53:04.038Z,89.00
2018-09-08T02:55:31.654Z,89.40
2018-09-08T02:57:59.533Z,89.60
2018-09-08T03:00:27.185Z,90.00
2018-09-08T03:02:54.575Z,90.00
2018-09-08T03:05:21.983Z,90.00
2018-09-08T03:07:49.283Z,90.00
2018-09-08T03:10:16.794Z,90.10
2018-09-08T03:12:43.954Z,90.10
2018-09-08T03:15:11.117Z,90.30
2018-09-08T03:17:38.278Z,90.30
2018-09-08T03:20:06.349Z,90.40
2018-09-08T03:22:33.515Z,90.40
2018-09-08T03:25:00.798Z,90.40
2018-09-08T03:27:27.947Z,90.50
2018-09-08T03:29:55.090Z,90.40
2018-09-08T03:32:22.241Z,90.40
2018-09-08T03:34:49.403Z,90.40
2018-09-08T03:37:16.572Z,90.50
2018-09-08T03:39:43.731Z,90.70
2018-09-08T03:42:10.958Z,90.30
2018-09-08T03:44:38.114Z,90.30
2018-09-08T03:47:05.266Z,90.30
2018-09-08T03:49:32.426Z,90.30
2018-09-08T03:51:59.615Z,90.30
2018-09-08T03:54:26.774Z,90.20
2018-09-08T03:56:53.922Z,90.20
2018-09-08T03:59:21.085Z,90.20
2018-09-08T04:01:48.267Z,90.30
2018-09-08T04:04:16.416Z,90.40
2018-09-08T04:06:44.516Z,90.40
2018-09-08T04:09:12.615Z,90.50
2018-09-08T04:11:40.719Z,90.80
2018-09-08T04:14:09.423Z,90.40
2018-09-08T04:16:37.716Z,90.50
2018-09-08T04:19:06.171Z,90.20
2018-09-08T04:21:34.275Z,90.40
2018-09-08T04:24:02.437Z,90.50
2018-09-08T04:26:30.512Z,90.50
2018-09-08T04:28:58.617Z,90.50
2018-09-08T04:31:26.710Z,90.60
2018-09-08T04:33:54.816Z,90.60
2018-09-08T04:36:32.582Z,90.40
2018-09-08T04:39:00.679Z,90.60
2018-09-08T04:41:29.390Z,90.80
2018-09-08T04:43:57.492Z,90.60
2018-09-08T04:46:25.583Z,90.70
2018-09-08T04:48:53.689Z,90.70
2018-09-08T04:51:21.776Z,90.80
2018-09-08T04:53:49.886Z,90.70
2018-09-08T04:56:17.990Z,90.70
2018-09-08T04:58:46.102Z,90.60
2018-09-08T05:01:14.210Z,90.70
2018-09-08T05:03:42.318Z,90.70
2018-09-08T05:06:10.422Z,90.70
2018-09-08T05:08:38.530Z,90.60
2018-09-08T05:11:06.657Z,90.70
2018-09-08T05:13:34.988Z,90.60
2018-09-08T05:16:03.096Z,90.60
2018-09-08T05:18:31.171Z,90.70
2018-09-08T05:20:59.394Z,90.70
2018-09-08T05:23:27.501Z,90.70
2018-09-08T05:25:55.607Z,90.80
2018-09-08T05:28:23.797Z,90.80
2018-09-08T05:30:51.914Z,90.70
2018-09-08T05:33:20.014Z,90.50
2018-09-08T05:35:48.307Z,90.40
2018-09-08T05:38:16.558Z,90.40
2018-09-08T05:40:44.800Z,90.10
2018-09-08T05:43:12.927Z,90.00
2018-09-08T05:45:41.095Z,89.40
2018-09-08T05:48:09.183Z,89.10
2018-09-08T05:50:37.310Z,88.80
2018-09-08T05:53:05.434Z,88.50
2018-09-08T05:55:33.540Z,88.10
2018-09-08T05:58:01.787Z,87.90
2018-09-08T06:00:29.890Z,87.90
2018-09-08T06:02:58.002Z,87.60
2018-09-08T06:05:32.590Z,87.50
2018-09-08T06:08:00.698Z,87.50
2018-09-08T06:10:28.942Z,87.30
2018-09-08T06:12:57.034Z,87.10
2018-09-08T06:15:25.238Z,86.80
2018-09-08T06:17:53.329Z,86.50
2018-09-08T06:20:21.434Z,86.30
2018-09-08T06:22:49.528Z,86.40
2018-09-08T06:25:17.717Z,86.40
2018-09-08T06:27:45.910Z,86.50
2018-09-08T06:30:13.997Z,86.40
2018-09-08T06:32:42.095Z,86.50
2018-09-08T06:35:10.298Z,86.30
2018-09-08T06:37:38.296Z,86.10
2018-09-08T06:40:07.403Z,85.80
2018-09-08T06:42:35.520Z,85.00
2018-09-08T06:45:03.794Z,85.60
2018-09-08T06:47:31.878Z,84.00
2018-09-08T06:50:00.007Z,83.10
2018-09-08T06:52:28.094Z,82.00
2018-09-08T06:54:56.209Z,81.80
2018-09-08T06:57:24.319Z,80.60
2018-09-08T06:59:52.485Z,80.70
2018-09-08T07:02:20.610Z,80.30
2018-09-08T07:04:48.776Z,79.60
2018-09-08T07:07:16.879Z,79.20
2018-09-08T07:09:45.007Z,78.10
2018-09-08T07:12:13.106Z,77.70
2018-09-08T07:14:41.218Z,77.40
2018-09-08T07:17:09.349Z,77.60
2018-09-08T07:19:37.861Z,77.20
2018-09-08T07:22:06.360Z,77.00
2018-09-08T07:24:34.475Z,76.60
2018-09-08T07:27:02.614Z,76.60
2018-09-08T07:29:30.788Z,76.60
2018-09-08T07:31:58.931Z,76.20
2018-09-08T07:34:27.065Z,76.10
2018-09-08T07:36:55.366Z,76.60
2018-09-08T07:39:23.461Z,76.50
2018-09-08T07:41:51.693Z,76.60
2018-09-08T07:44:19.828Z,76.00
2018-09-08T07:46:48.071Z,75.50
2018-09-08T07:49:16.246Z,75.20
2018-09-08T07:51:44.371Z,75.20
2018-09-08T07:54:12.487Z,75.80
2018-09-08T07:56:40.634Z,75.50
2018-09-08T07:59:08.781Z,73.60
2018-09-08T08:01:36.848Z,73.90
2018-09-08T08:04:04.943Z,72.30
2018-09-08T08:06:33.137Z,72.30
2018-09-08T08:09:01.292Z,70.60
2018-09-08T08:11:29.419Z,69.10
2018-09-08T08:13:57.522Z,68.40
2018-09-08T08:16:25.746Z,67.70
2018-09-08T08:18:54.506Z,67.50
2018-09-08T08:21:23.471Z,67.00
2018-09-08T08:23:52.391Z,66.90
2018-09-08T08:26:21.146Z,66.80
2018-09-08T08:28:50.048Z,66.90
2018-09-08T08:31:18.910Z,67.40
2018-09-08T08:33:47.455Z,67.30
2018-09-08T08:36:15.558Z,67.40
2018-09-08T08:38:44.177Z,67.70
2018-09-08T08:41:13.007Z,66.90
2018-09-08T08:43:41.095Z,65.80
2018-09-08T08:46:10.601Z,65.70
2018-09-08T08:48:39.325Z,65.30
2018-09-08T08:51:19.595Z,64.10
2018-09-08T08:53:59.680Z,63.80
2018-09-08T08:56:28.088Z,64.30
2018-09-08T08:58:57.032Z,63.90
2018-09-08T09:01:25.154Z,63.50
2018-09-08T09:03:53.248Z,61.80
2018-09-08T09:06:21.362Z,60.30
2018-09-08T09:08:50.374Z,59.40
2018-09-08T09:11:18.772Z,59.30
2018-09-08T09:13:47.012Z,58.40
2018-09-08T09:16:15.993Z,58.10
2018-09-08T09:18:56.300Z,57.80
2018-09-08T09:21:35.628Z,55.30
2018-09-08T09:24:25.329Z,55.20
2018-09-08T09:26:54.147Z,53.20
2018-09-08T09:29:22.408Z,50.10
2018-09-08T09:31:50.551Z,50.50
2018-09-08T09:34:18.694Z,49.50
2018-09-08T09:36:46.828Z,49.30
2018-09-08T09:39:15.466Z,49.00
2018-09-08T09:41:44.170Z,48.30
2018-09-08T09:44:13.029Z,48.60
2018-09-08T09:46:42.583Z,47.60
2018-09-08T09:49:11.776Z,47.10
2018-09-08T09:51:39.886Z,44.80
2018-09-08T09:54:08.152Z,45.00
2018-09-08T09:56:36.325Z,44.20
2018-09-08T09:59:05.165Z,44.30
2018-09-08T10:01:38.744Z,44.40
2018-09-08T10:04:06.846Z,44.50
2018-09-08T10:06:35.014Z,42.70
2018-09-08T10:09:03.282Z,42.00
2018-09-08T10:11:31.394Z,43.80
2018-09-08T10:13:59.621Z,45.00
2018-09-08T10:16:27.748Z,44.60
2018-09-08T10:18:55.890Z,44.30
2018-09-08T10:21:24.019Z,44.30
2018-09-08T10:24:05.156Z,43.80
2018-09-08T10:26:22.194Z,41.60
2018-09-08T10:28:51.275Z,39.80
2018-09-08T10:31:20.523Z,41.00
2018-09-08T10:33:48.678Z,40.40
2018-09-08T10:36:17.216Z,40.40
2018-09-08T10:38:46.152Z,40.90
2018-09-08T10:41:14.288Z,40.90
2018-09-08T10:43:42.430Z,40.90
2018-09-08T10:46:10.551Z,40.80
2018-09-08T10:48:38.685Z,41.30
2018-09-08T10:51:20.828Z,40.70
2018-09-08T10:53:49.707Z,39.90
2018-09-08T10:56:17.838Z,39.00
2018-09-08T10:58:45.985Z,40.00
2018-09-08T11:01:14.128Z,40.30
2018-09-08T11:03:42.746Z,40.20
2018-09-08T11:06:10.863Z,41.00
2018-09-08T11:08:39.200Z,41.40
2018-09-08T11:11:08.247Z,41.50
2018-09-08T11:13:37.247Z,41.40
2018-09-08T11:16:06.361Z,41.60
2018-09-08T11:18:34.479Z,40.50
2018-09-08T11:21:02.583Z,40.40
2018-09-08T11:23:31.518Z,39.80
2018-09-08T11:25:59.685Z,39.20
2018-09-08T11:28:28.415Z,39.20
2018-09-08T11:30:56.617Z,39.30
2018-09-08T11:33:25.480Z,40.00
2018-09-08T11:35:53.591Z,40.60
2018-09-08T11:38:22.179Z,40.40
2018-09-08T11:40:51.215Z,40.40
2018-09-08T11:43:20.039Z,40.30
2018-09-08T11:45:48.207Z,40.60
2018-09-08T11:48:16.352Z,41.00
2018-09-08T11:50:44.497Z,40.20
2018-09-08T11:53:13.554Z,39.70
2018-09-08T11:55:41.745Z,39.40
2018-09-08T11:58:09.850Z,39.20
2018-09-08T12:00:38.471Z,39.00
2018-09-08T12:03:06.729Z,38.40
2018-09-08T12:05:35.262Z,38.00
2018-09-08T12:08:03.431Z,37.90
2018-09-08T12:10:31.543Z,37.50
2018-09-08T12:12:59.697Z,36.60
2018-09-08T12:15:27.876Z,34.80
2018-09-08T12:17:56.819Z,33.90
2018-09-08T12:20:24.966Z,32.90
2018-09-08T12:22:53.075Z,32.20
2018-09-08T12:25:21.251Z,32.00
2018-09-08T12:27:49.395Z,32.10
2018-09-08T12:30:18.161Z,30.90
2018-09-08T12:32:47.364Z,30.90
2018-09-08T12:35:15.518Z,29.80
2018-09-08T12:37:43.653Z,30.40
2018-09-08T12:40:11.813Z,31.40
2018-09-08T12:42:40.011Z,32.30
2018-09-08T12:45:08.139Z,31.10
2018-09-08T12:47:36.243Z,30.10
2018-09-08T12:50:04.416Z,30.00
2018-09-08T12:52:32.563Z,29.70
2018-09-08T12:55:00.714Z,29.20
2018-09-08T12:57:28.843Z,28.10
2018-09-08T12:59:56.979Z,27.20
2018-09-08T13:02:25.111Z,27.20
2018-09-08T13:04:53.240Z,26.60
2018-09-08T13:07:21.367Z,26.60
2018-09-08T13:09:49.527Z,26.50
2018-09-08T13:12:17.673Z,26.00
2018-09-08T13:14:45.815Z,25.30
2018-09-08T13:17:13.923Z,25.80
2018-09-08T13:19:42.232Z,25.40
2018-09-08T13:22:10.346Z,25.00
2018-09-08T13:24:38.548Z,24.70
2018-09-08T13:27:06.735Z,24.60
2018-09-08T13:29:34.856Z,24.20
2018-09-08T13:32:02.969Z,24.20
2018-09-08T13:34:31.132Z,23.90
2018-09-08T13:36:59.249Z,24.70
2018-09-08T13:39:27.391Z,24.10
2018-09-08T13:41:55.471Z,23.80
2018-09-08T13:44:23.607Z,24.00
2018-09-08T13:46:51.728Z,24.40
2018-09-08T13:49:19.849Z,23.80
2018-09-08T13:51:48.010Z,23.50
2018-09-08T13:54:16.148Z,22.70
2018-09-08T13:56:44.259Z,22.10
2018-09-08T13:59:12.395Z,21.80
2018-09-08T14:01:40.509Z,21.30
2018-09-08T14:04:08.677Z,20.40
2018-09-08T14:06:36.874Z,20.70
2018-09-08T14:09:06.151Z,21.40
2018-09-08T14:11:34.379Z,21.70
2018-09-08T14:14:02.507Z,21.60
2018-09-08T14:16:30.655Z,21.30
2018-09-08T14:18:58.776Z,21.40
2018-09-08T14:21:26.979Z,21.40
2018-09-08T14:23:55.116Z,21.70
2018-09-08T14:26:23.228Z,22.10
2018-09-08T14:28:51.335Z,22.20
2018-09-08T14:31:19.556Z,22.30
2018-09-08T14:33:47.692Z,21.60
2018-09-08T14:36:15.874Z,21.40
2018-09-08T14:38:44.093Z,21.80
2018-09-08T14:41:12.250Z,23.20
2018-09-08T14:43:40.404Z,23.90
2018-09-08T14:46:08.579Z,23.20
2018-09-08T14:48:36.699Z,22.90
2018-09-08T14:51:04.939Z,23.20
2018-09-08T14:53:33.075Z,23.00
2018-09-08T14:56:01.310Z,23.90
2018-09-08T14:58:29.437Z,24.50
2018-09-08T15:00:57.571Z,26.10
2018-09-08T15:03:25.682Z,25.90
2018-09-08T15:05:53.807Z,26.50
2018-09-08T15:08:22.039Z,26.80
2018-09-08T15:10:50.159Z,27.70
2018-09-08T15:13:18.281Z,27.50
2018-09-08T15:15:46.395Z,27.70
2018-09-08T15:18:14.538Z,28.60
2018-09-08T15:20:42.681Z,29.00
2018-09-08T15:23:10.782Z,28.50
2018-09-08T15:25:38.983Z,28.50
2018-09-08T15:28:07.179Z,28.00
2018-09-08T15:30:35.303Z,29.00
2018-09-08T15:33:03.519Z,28.20
2018-09-08T15:35:31.642Z,28.20
2018-09-08T15:37:59.823Z,28.90
2018-09-08T15:40:27.943Z,28.70
2018-09-08T15:42:56.067Z,29.00
2018-09-08T15:45:24.266Z,28.70
2018-09-08T15:47:52.375Z,29.20
2018-09-08T15:50:20.486Z,29.10
2018-09-08T15:52:48.618Z,29.20
2018-09-08T15:55:17.635Z,29.80
2018-09-08T15:57:45.808Z,30.30
2018-09-08T16:00:13.992Z,30.00
2018-09-08T16:02:42.101Z,30.20
2018-09-08T16:05:10.326Z,30.10
2018-09-08T16:07:38.443Z,31.40
2018-09-08T16:10:07.491Z,31.70
2018-09-08T16:12:35.576Z,31.70
2018-09-08T16:15:03.710Z,31.30
2018-09-08T16:17:31.831Z,31.60
2018-09-08T16:19:59.968Z,31.50
2018-09-08T16:22:28.105Z,31.30
2018-09-08T16:24:56.367Z,31.20
2018-09-08T16:27:24.498Z,31.50
2018-09-08T16:29:52.694Z,31.60
2018-09-08T16:32:20.836Z,32.90
2018-09-08T16:34:49.031Z,33.50
2018-09-08T16:37:17.150Z,34.40
2018-09-08T16:39:45.305Z,35.20
2018-09-08T16:42:13.436Z,35.70
2018-09-08T16:44:41.554Z,36.10
2018-09-08T16:47:09.684Z,37.00
2018-09-08T16:49:37.873Z,37.10
2018-09-08T16:52:06.246Z,37.20
2018-09-08T16:54:34.276Z,37.50
2018-09-08T16:57:02.390Z,37.70
2018-09-08T16:59:30.493Z,37.70
2018-09-08T17:01:58.615Z,37.80
2018-09-08T17:04:26.747Z,38.50
2018-09-08T17:06:54.917Z,38.80
2018-09-08T17:09:23.046Z,40.20
2018-09-08T17:11:51.177Z,39.60
2018-09-08T17:14:19.294Z,39.80
2018-09-08T17:16:47.406Z,40.10
2018-09-08T17:19:15.526Z,40.30
2018-09-08T17:21:43.639Z,41.20
2018-09-08T17:24:11.734Z,40.60
2018-09-08T17:26:39.917Z,41.40
2018-09-08T17:29:08.270Z,40.60
2018-09-08T17:31:36.392Z,40.60
2018-09-08T17:34:04.653Z,41.00
2018-09-08T17:36:32.762Z,41.30
2018-09-08T17:41:35.518Z,42.10
2018-09-08T17:44:03.638Z,41.90
2018-09-08T17:46:31.771Z,42.20
2018-09-08T17:49:00.410Z,42.60
2018-09-08T17:51:28.578Z,42.50
2018-09-08T17:53:56.687Z,42.80
2018-09-08T17:56:24.795Z,43.20
2018-09-08T17:58:53.297Z,43.80
2018-09-08T18:01:21.394Z,43.90
2018-09-08T18:03:51.094Z,44.40
2018-09-08T18:06:19.387Z,44.60
2018-09-08T18:08:47.486Z,45.00
2018-09-08T18:11:15.598Z,44.70
2018-09-08T18:13:43.697Z,45.40
2018-09-08T18:16:11.801Z,45.70
2018-09-08T18:18:39.902Z,46.00
2018-09-08T18:21:08.087Z,46.60
2018-09-08T18:23:36.195Z,47.10
2018-09-08T18:26:04.292Z,47.80
2018-09-08T18:28:32.416Z,48.30
2018-09-08T18:31:00.541Z,48.80
2018-09-08T18:33:28.651Z,49.20
2018-09-08T18:35:57.344Z,49.50
2018-09-08T18:38:25.486Z,49.80
2018-09-08T18:40:53.583Z,50.20
2018-09-08T18:43:21.702Z,50.40
2018-09-08T18:45:49.835Z,50.80
2018-09-08T18:48:17.995Z,51.00
2018-09-08T18:50:46.083Z,51.30
2018-09-08T18:53:14.182Z,51.50
2018-09-08T18:55:42.283Z,51.80
2018-09-08T18:58:10.710Z,52.30
2018-09-08T19:00:38.815Z,52.50
2018-09-08T19:03:06.959Z,53.00
2018-09-08T19:05:35.103Z,53.20
2018-09-08T19:08:03.227Z,53.70
2018-09-08T19:10:33.799Z,54.00
2018-09-08T19:13:02.853Z,54.30
2018-09-08T19:15:30.956Z,54.60
2018-09-08T19:17:59.075Z,54.80
2018-09-08T19:20:32.694Z,55.30
2018-09-08T19:23:00.855Z,55.50
2018-09-08T19:25:28.983Z,55.50
2018-09-08T19:27:57.101Z,56.10
2018-09-08T19:30:25.207Z,55.70
2018-09-08T19:32:53.320Z,55.70
2018-09-08T19:35:26.847Z,55.90
2018-09-08T19:37:54.984Z,55.90
2018-09-08T19:40:28.451Z,56.00
2018-09-08T19:42:56.638Z,56.10
2018-09-08T19:45:24.667Z,56.20
2018-09-08T19:47:58.155Z,56.30
2018-09-08T19:50:26.286Z,56.10
2018-09-08T19:52:59.994Z,56.60
2018-09-08T19:55:28.087Z,56.70
2018-09-08T19:58:01.750Z,57.00
2018-09-08T20:00:29.905Z,56.90
2018-09-08T20:02:58.102Z,57.10
2018-09-08T20:05:26.378Z,57.30
2018-09-08T20:07:54.477Z,57.00
2018-09-08T20:10:22.578Z,57.10
2018-09-08T20:12:50.798Z,57.30
2018-09-08T20:15:18.901Z,58.20
2018-09-08T20:17:47.050Z,58.10
2018-09-08T20:20:15.183Z,58.50
2018-09-08T20:22:43.266Z,58.60
2018-09-08T20:25:11.458Z,58.70
2018-09-08T20:27:39.582Z,58.80
2018-09-08T20:30:08.419Z,59.20
2018-09-08T20:32:36.529Z,59.50
2018-09-08T20:35:04.984Z,59.60
2018-09-08T20:37:33.073Z,59.90
2018-09-08T20:40:01.402Z,60.00
2018-09-08T20:42:29.551Z,60.30
2018-09-08T20:44:57.691Z,60.60
2018-09-08T20:47:25.943Z,60.60
2018-09-08T20:49:54.092Z,60.70
2018-09-08T20:52:22.191Z,60.20
2018-09-08T20:54:50.315Z,60.30
2018-09-08T20:57:18.474Z,60.50
2018-09-08T20:59:46.591Z,60.80
2018-09-08T21:02:14.706Z,61.00
2018-09-08T21:04:42.818Z,61.10
2018-09-08T21:07:10.927Z,61.20
2018-09-08T21:09:39.971Z,61.30
2018-09-08T21:12:08.218Z,61.50
2018-09-08T21:14:36.978Z,62.40
2018-09-08T21:17:05.291Z,61.80
2018-09-08T21:19:33.443Z,62.20
2018-09-08T21:22:01.527Z,62.20
2018-09-08T21:24:30.029Z,62.30
2018-09-08T21:26:58.148Z,62.40
2018-09-08T21:29:26.363Z,62.50
2018-09-08T21:31:54.453Z,62.80
2018-09-08T21:34:22.556Z,63.00
2018-09-08T21:36:50.662Z,63.30
2018-09-08T21:39:18.772Z,63.60
2018-09-08T21:41:46.888Z,63.80
2018-09-08T21:44:14.968Z,64.00
2018-09-08T21:46:43.071Z,64.30
2018-09-08T21:49:11.195Z,64.50
2018-09-08T21:51:39.297Z,64.90
2018-09-08T21:54:07.427Z,65.10
2018-09-08T21:56:35.522Z,65.20
2018-09-08T21:59:03.641Z,65.30
2018-09-08T22:01:31.749Z,65.40
2018-09-08T22:03:59.873Z,65.50
2018-09-08T22:06:27.989Z,65.70
2018-09-08T22:08:56.112Z,65.70
2018-09-08T22:11:24.222Z,65.70
2018-09-08T22:13:52.338Z,65.40
2018-09-08T22:16:20.502Z,65.70
2018-09-08T22:18:48.751Z,65.90
2018-09-08T22:21:16.876Z,66.20
2018-09-08T22:23:44.982Z,66.20
2018-09-08T22:26:13.097Z,66.70
2018-09-08T22:28:41.219Z,67.00
2018-09-08T22:31:09.335Z,67.00
2018-09-08T22:33:37.447Z,67.10
2018-09-08T22:36:05.534Z,67.10
2018-09-08T22:38:33.622Z,67.30
2018-09-08T22:41:01.766Z,67.40
2018-09-08T22:43:29.879Z,67.60
2018-09-08T22:45:57.999Z,67.90
2018-09-08T22:48:26.124Z,67.90
2018-09-08T22:50:54.226Z,68.00
2018-09-08T22:53:22.399Z,68.30
2018-09-08T22:55:50.503Z,68.50
2018-09-08T22:58:18.642Z,68.70
2018-09-08T23:00:46.738Z,68.70
2018-09-08T23:03:14.841Z,68.70
2018-09-08T23:05:43.053Z,69.10
2018-09-08T23:08:11.226Z,69.30
2018-09-08T23:10:39.326Z,69.40
2018-09-08T23:13:07.464Z,69.40
2018-09-08T23:15:35.575Z,69.50
2018-09-08T23:18:03.706Z,69.60
2018-09-08T23:20:31.823Z,70.00
2018-09-08T23:22:59.925Z,69.80
2018-09-08T23:25:28.043Z,69.70
2018-09-08T23:27:56.966Z,70.00
2018-09-08T23:30:25.104Z,70.00
2018-09-08T23:32:53.283Z,70.20
2018-09-08T23:35:21.417Z,70.40
2018-09-08T23:37:49.522Z,70.60
2018-09-08T23:40:17.661Z,70.70
2018-09-08T23:42:45.797Z,70.80
2018-09-08T23:45:13.916Z,70.90
2018-09-08T23:47:42.062Z,70.90
2018-09-08T23:50:10.178Z,71.00
2018-09-08T23:52:39.569Z,71.80
2018-09-08T23:55:07.682Z,71.30
2018-09-08T23:57:35.815Z,71.10
